createdAt,value
2022-08-31T00:00:02.992Z,26.66
2022-08-31T00:01:03.016Z,26.66
2022-08-31T00:02:03.154Z,26.65
2022-08-31T00:03:03.078Z,26.60
2022-08-31T00:04:03.164Z,26.65
2022-08-31T00:05:03.287Z,26.59
2022-08-31T00:06:03.428Z,26.64
2022-08-31T00:08:03.246Z,26.69
2022-08-31T00:09:03.273Z,26.53
2022-08-31T00:10:03.306Z,26.61
2022-08-31T00:11:03.335Z,26.64
2022-08-31T00:12:03.369Z,26.64
2022-08-31T00:13:03.706Z,26.60
2022-08-31T00:14:03.429Z,26.60
2022-08-31T00:15:03.463Z,26.59
2022-08-31T00:16:03.532Z,26.61
2022-08-31T00:17:03.527Z,26.57
2022-08-31T00:18:03.593Z,26.68
2022-08-31T00:19:03.595Z,26.65
2022-08-31T00:20:03.923Z,26.57
2022-08-31T00:21:03.654Z,26.61
2022-08-31T00:22:03.683Z,26.54
2022-08-31T00:23:03.723Z,26.65
2022-08-31T00:24:03.746Z,26.65
2022-08-31T00:25:03.786Z,26.64
2022-08-31T00:26:03.807Z,26.56
2022-08-31T00:27:04.145Z,26.60
2022-08-31T00:28:03.875Z,26.57
2022-08-31T00:29:03.909Z,26.61
2022-08-31T00:30:03.935Z,26.59
2022-08-31T00:31:03.973Z,26.61
2022-08-31T00:32:04.064Z,26.56
2022-08-31T00:33:04.036Z,26.60
2022-08-31T00:34:04.362Z,26.50
2022-08-31T00:35:04.094Z,26.53
2022-08-31T00:36:04.126Z,26.57
2022-08-31T00:37:04.172Z,26.49
2022-08-31T00:38:04.194Z,26.59
2022-08-31T00:39:04.227Z,26.60
2022-08-31T00:40:04.283Z,26.56
2022-08-31T00:42:04.619Z,26.59
2022-08-31T00:43:04.351Z,26.56
2022-08-31T00:44:04.393Z,26.50
2022-08-31T00:46:04.513Z,26.56
2022-08-31T00:47:04.517Z,26.54
2022-08-31T00:48:04.505Z,26.65
2022-08-31T00:49:04.792Z,26.56
2022-08-31T00:50:04.569Z,26.57
2022-08-31T00:51:04.604Z,26.60
2022-08-31T00:52:04.636Z,26.56
2022-08-31T00:53:04.715Z,26.57
2022-08-31T00:54:04.697Z,26.60
2022-08-31T00:55:04.727Z,26.46
2022-08-31T00:56:05.072Z,26.56
2022-08-31T00:57:04.792Z,26.60
2022-08-31T00:58:04.821Z,26.60
2022-08-31T00:59:04.856Z,26.56
2022-08-31T01:00:05.166Z,26.59
2022-08-31T01:01:04.966Z,26.54
2022-08-31T01:02:05.009Z,26.47
2022-08-31T01:03:05.232Z,26.59
2022-08-31T01:04:05.016Z,26.57
2022-08-31T01:05:05.054Z,26.51
2022-08-31T01:06:05.072Z,26.51
2022-08-31T01:07:05.107Z,26.57
2022-08-31T01:08:05.145Z,26.60
2022-08-31T01:09:05.178Z,26.53
2022-08-31T01:10:05.453Z,26.59
2022-08-31T01:11:05.234Z,26.54
2022-08-31T01:12:07.308Z,26.50
2022-08-31T01:14:05.334Z,26.54
2022-08-31T01:15:05.360Z,26.51
2022-08-31T01:16:05.454Z,26.49
2022-08-31T01:17:05.674Z,26.53
2022-08-31T01:18:18.315Z,26.46
2022-08-31T01:19:05.480Z,26.49
2022-08-31T01:20:05.514Z,26.46
2022-08-31T01:22:05.579Z,26.47
2022-08-31T01:24:05.642Z,26.46
2022-08-31T01:25:05.929Z,26.54
2022-08-31T01:26:05.710Z,26.49
2022-08-31T01:27:05.735Z,26.49
2022-08-31T01:28:05.775Z,26.49
2022-08-31T01:29:05.803Z,26.47
2022-08-31T01:30:05.835Z,26.50
2022-08-31T01:31:05.900Z,26.47
2022-08-31T01:32:06.145Z,26.44
2022-08-31T01:33:05.923Z,26.46
2022-08-31T01:34:05.962Z,26.47
2022-08-31T01:35:05.999Z,26.47
2022-08-31T01:36:06.024Z,26.49
2022-08-31T01:37:06.151Z,26.41
2022-08-31T01:38:06.085Z,26.49
2022-08-31T01:39:06.414Z,26.51
2022-08-31T01:40:06.219Z,26.44
2022-08-31T01:41:06.178Z,26.46
2022-08-31T01:42:06.222Z,26.42
2022-08-31T01:43:06.242Z,26.47
2022-08-31T01:44:06.289Z,26.46
2022-08-31T01:45:06.309Z,26.47
2022-08-31T01:46:09.073Z,26.47
2022-08-31T01:47:06.496Z,26.41
2022-08-31T01:48:06.402Z,26.47
2022-08-31T01:49:06.431Z,26.44
2022-08-31T01:50:06.469Z,26.38
2022-08-31T01:51:06.489Z,26.36
2022-08-31T01:52:06.525Z,26.41
2022-08-31T01:53:06.859Z,26.44
2022-08-31T01:54:06.592Z,26.44
2022-08-31T01:55:06.616Z,26.44
2022-08-31T01:56:06.659Z,26.44
2022-08-31T01:57:06.694Z,26.39
2022-08-31T01:58:06.719Z,26.44
2022-08-31T02:00:06.783Z,26.38
2022-08-31T02:01:15.581Z,26.49
2022-08-31T02:02:06.883Z,26.35
2022-08-31T02:03:06.871Z,26.42
2022-08-31T02:05:06.934Z,26.41
2022-08-31T02:06:06.967Z,26.44
2022-08-31T02:07:07.102Z,26.39
2022-08-31T02:08:07.332Z,26.39
2022-08-31T02:09:07.056Z,26.36
2022-08-31T02:10:07.096Z,26.34
2022-08-31T02:11:07.123Z,26.31
2022-08-31T02:12:07.152Z,26.31
2022-08-31T02:13:07.182Z,26.31
2022-08-31T02:15:07.249Z,26.31
2022-08-31T02:16:07.588Z,26.29
2022-08-31T02:17:07.313Z,26.35
2022-08-31T02:18:07.344Z,26.35
2022-08-31T02:19:07.373Z,26.35
2022-08-31T02:20:07.403Z,26.36
2022-08-31T02:21:07.440Z,26.35
2022-08-31T02:22:07.466Z,26.35
2022-08-31T02:23:07.801Z,26.34
2022-08-31T02:24:07.527Z,26.31
2022-08-31T02:25:08.589Z,26.36
2022-08-31T02:26:07.598Z,26.34
2022-08-31T02:30:08.028Z,26.29
2022-08-31T02:31:07.858Z,26.35
2022-08-31T02:32:07.789Z,26.32
2022-08-31T02:33:07.816Z,26.34
2022-08-31T02:35:07.997Z,26.29
2022-08-31T02:36:07.903Z,26.32
2022-08-31T02:37:08.195Z,26.32
2022-08-31T02:38:07.970Z,26.23
2022-08-31T02:39:08.003Z,26.24
2022-08-31T02:40:10.989Z,26.34
2022-08-31T02:41:08.064Z,26.23
2022-08-31T02:43:08.175Z,26.31
2022-08-31T02:44:08.411Z,26.29
2022-08-31T02:45:08.191Z,26.23
2022-08-31T02:46:08.267Z,26.34
2022-08-31T02:47:08.255Z,26.29
2022-08-31T02:48:08.284Z,26.28
2022-08-31T02:49:08.314Z,26.29
2022-08-31T02:50:08.350Z,26.27
2022-08-31T02:51:08.675Z,26.27
2022-08-31T02:52:08.411Z,26.27
2022-08-31T02:53:08.440Z,26.23
2022-08-31T02:54:08.472Z,26.29
2022-08-31T02:55:08.498Z,26.31
2022-08-31T02:56:08.531Z,26.31
2022-08-31T02:57:08.561Z,26.20
2022-08-31T02:58:08.848Z,26.32
2022-08-31T02:59:08.627Z,26.27
2022-08-31T03:00:08.664Z,26.32
2022-08-31T03:01:08.763Z,26.28
2022-08-31T03:02:08.848Z,26.23
2022-08-31T03:03:08.803Z,26.24
2022-08-31T03:04:08.845Z,26.23
2022-08-31T03:05:09.113Z,26.24
2022-08-31T03:06:08.845Z,26.27
2022-08-31T03:07:08.922Z,26.27
2022-08-31T03:08:08.910Z,26.23
2022-08-31T03:09:08.943Z,26.27
2022-08-31T03:10:08.972Z,26.24
2022-08-31T03:11:09.007Z,26.24
2022-08-31T03:12:09.285Z,26.24
2022-08-31T03:13:09.061Z,26.20
2022-08-31T03:14:09.102Z,26.21
2022-08-31T03:17:09.224Z,26.21
2022-08-31T03:18:09.525Z,26.27
2022-08-31T03:19:09.249Z,26.29
2022-08-31T03:20:09.285Z,26.21
2022-08-31T03:21:09.317Z,26.16
2022-08-31T03:22:09.347Z,26.19
2022-08-31T03:23:09.375Z,26.24
2022-08-31T03:24:09.662Z,26.28
2022-08-31T03:25:09.443Z,26.23
2022-08-31T03:26:09.474Z,26.16
2022-08-31T03:27:09.507Z,26.27
2022-08-31T03:28:09.536Z,26.23
2022-08-31T03:29:09.562Z,26.29
2022-08-31T03:30:09.898Z,26.24
2022-08-31T03:31:09.724Z,26.24
2022-08-31T03:32:09.659Z,26.24
2022-08-31T03:33:09.691Z,26.20
2022-08-31T03:34:09.724Z,26.24
2022-08-31T03:35:09.749Z,26.23
2022-08-31T03:36:09.787Z,26.20
2022-08-31T03:37:10.066Z,26.21
2022-08-31T03:38:09.849Z,26.16
2022-08-31T03:39:09.875Z,26.21
2022-08-31T03:40:09.968Z,26.21
2022-08-31T03:41:09.944Z,26.19
2022-08-31T03:42:09.977Z,26.20
2022-08-31T03:43:10.004Z,26.21
2022-08-31T03:44:10.336Z,26.19
2022-08-31T03:45:10.067Z,26.20
2022-08-31T03:46:11.934Z,26.21
2022-08-31T03:47:10.125Z,26.20
2022-08-31T03:48:12.757Z,26.19
2022-08-31T03:49:10.195Z,26.23
2022-08-31T03:50:10.234Z,26.16
2022-08-31T03:51:10.554Z,26.21
2022-08-31T03:52:10.287Z,26.19
2022-08-31T03:53:10.314Z,26.19
2022-08-31T03:54:10.347Z,26.11
2022-08-31T03:55:10.475Z,26.20
2022-08-31T03:56:10.410Z,26.20
2022-08-31T03:57:10.441Z,26.16
2022-08-31T03:58:10.775Z,26.21
2022-08-31T03:59:10.499Z,26.16
2022-08-31T04:00:10.548Z,26.16
2022-08-31T04:01:10.591Z,26.21
2022-08-31T04:02:10.649Z,26.20
2022-08-31T04:03:10.671Z,26.04
2022-08-31T04:04:10.661Z,26.17
2022-08-31T04:05:10.997Z,26.08
2022-08-31T04:06:10.721Z,26.17
2022-08-31T04:08:10.782Z,26.11
2022-08-31T04:09:10.821Z,26.16
2022-08-31T04:10:10.888Z,26.21
2022-08-31T04:11:10.874Z,26.17
2022-08-31T04:12:11.159Z,26.20
2022-08-31T04:13:11.003Z,26.20
2022-08-31T04:14:10.981Z,26.20
2022-08-31T04:15:10.998Z,26.19
2022-08-31T04:17:11.063Z,26.11
2022-08-31T04:18:11.109Z,26.12
2022-08-31T04:19:11.457Z,26.12
2022-08-31T04:20:11.156Z,26.21
2022-08-31T04:22:11.222Z,26.23
2022-08-31T04:23:11.332Z,26.09
2022-08-31T04:24:11.285Z,26.09
2022-08-31T04:25:11.317Z,26.20
2022-08-31T04:26:11.646Z,26.21
2022-08-31T04:27:11.376Z,26.11
2022-08-31T04:28:11.407Z,26.20
2022-08-31T04:29:13.547Z,26.13
2022-08-31T04:30:11.473Z,26.13
2022-08-31T04:31:11.700Z,26.12
2022-08-31T04:32:11.531Z,26.20
2022-08-31T04:33:11.903Z,26.19
2022-08-31T04:34:11.595Z,26.24
2022-08-31T04:35:11.625Z,26.21
2022-08-31T04:37:11.689Z,26.17
2022-08-31T04:38:12.116Z,26.24
2022-08-31T04:40:11.877Z,26.09
2022-08-31T04:41:12.061Z,26.19
2022-08-31T04:42:11.847Z,26.21
2022-08-31T04:43:11.930Z,26.16
2022-08-31T04:44:15.369Z,26.11
2022-08-31T04:45:11.943Z,26.06
2022-08-31T04:46:12.056Z,26.17
2022-08-31T04:47:12.004Z,26.21
2022-08-31T04:48:12.343Z,26.21
2022-08-31T04:50:12.106Z,26.16
2022-08-31T04:51:12.128Z,26.13
2022-08-31T04:52:12.156Z,26.13
2022-08-31T04:53:12.189Z,26.12
2022-08-31T04:54:12.216Z,26.09
2022-08-31T04:55:12.246Z,26.20
2022-08-31T04:56:12.286Z,26.09
2022-08-31T04:57:12.313Z,26.17
2022-08-31T04:58:12.695Z,26.11
2022-08-31T04:59:12.379Z,26.09
2022-08-31T05:00:12.406Z,26.13
2022-08-31T05:01:12.766Z,26.16
2022-08-31T05:02:12.547Z,26.09
2022-08-31T05:03:12.503Z,26.17
2022-08-31T05:04:12.533Z,26.12
2022-08-31T05:05:12.563Z,26.11
2022-08-31T05:06:12.594Z,26.08
2022-08-31T05:07:12.920Z,26.04
2022-08-31T05:08:12.651Z,26.08
2022-08-31T05:09:12.684Z,26.08
2022-08-31T05:10:12.713Z,26.08
2022-08-31T05:11:12.845Z,26.04
2022-08-31T05:12:12.827Z,26.11
2022-08-31T05:13:13.134Z,26.04
2022-08-31T05:15:12.885Z,26.11
2022-08-31T05:16:12.988Z,26.04
2022-08-31T05:17:15.034Z,26.06
2022-08-31T05:18:12.979Z,25.98
2022-08-31T05:19:13.298Z,26.04
2022-08-31T05:20:13.025Z,26.04
2022-08-31T05:21:13.059Z,26.03
2022-08-31T05:22:13.087Z,26.01
2022-08-31T05:23:13.220Z,26.06
2022-08-31T05:24:13.155Z,26.01
2022-08-31T05:25:13.182Z,26.04
2022-08-31T05:26:13.514Z,26.01
2022-08-31T05:27:13.240Z,26.00
2022-08-31T05:28:13.275Z,26.03
2022-08-31T05:29:13.304Z,26.01
2022-08-31T05:30:13.338Z,26.01
2022-08-31T05:31:13.425Z,26.01
2022-08-31T05:32:13.405Z,25.98
2022-08-31T05:33:13.731Z,26.01
2022-08-31T05:34:13.464Z,26.03
2022-08-31T05:35:13.497Z,26.01
2022-08-31T05:37:13.558Z,26.00
2022-08-31T05:38:13.594Z,26.01
2022-08-31T05:39:13.622Z,26.03
2022-08-31T05:40:14.005Z,26.03
2022-08-31T05:41:13.686Z,26.06
2022-08-31T05:43:13.788Z,26.01
2022-08-31T05:44:13.787Z,26.08
2022-08-31T05:45:13.810Z,26.00
2022-08-31T05:46:13.898Z,25.98
2022-08-31T05:47:14.181Z,26.01
2022-08-31T05:48:13.940Z,25.98
2022-08-31T05:49:13.930Z,26.06
2022-08-31T05:50:13.966Z,26.00
2022-08-31T05:51:13.991Z,26.03
2022-08-31T05:52:14.026Z,26.00
2022-08-31T05:53:14.111Z,26.06
2022-08-31T05:54:14.401Z,26.03
2022-08-31T05:55:14.114Z,25.97
2022-08-31T05:56:14.147Z,25.98
2022-08-31T05:57:14.178Z,26.00
2022-08-31T05:58:14.332Z,26.03
2022-08-31T05:59:14.398Z,25.91
2022-08-31T06:00:14.355Z,26.00
2022-08-31T06:01:14.787Z,26.00
2022-08-31T06:02:14.491Z,26.06
2022-08-31T06:03:14.435Z,26.03
2022-08-31T06:04:14.403Z,26.00
2022-08-31T06:05:14.495Z,26.01
2022-08-31T06:06:14.460Z,26.03
2022-08-31T06:07:14.490Z,26.00
2022-08-31T06:09:14.803Z,26.04
2022-08-31T06:10:14.583Z,26.00
2022-08-31T06:11:14.619Z,25.98
2022-08-31T06:12:14.672Z,25.94
2022-08-31T06:14:14.715Z,26.04
2022-08-31T06:15:14.741Z,26.00
2022-08-31T06:16:15.188Z,26.03
2022-08-31T06:17:14.801Z,26.03
2022-08-31T06:18:14.833Z,26.00
2022-08-31T06:19:15.168Z,26.04
2022-08-31T06:20:17.804Z,26.01
2022-08-31T06:21:14.924Z,26.01
2022-08-31T06:22:14.957Z,26.00
2022-08-31T06:23:15.294Z,26.04
2022-08-31T06:24:15.023Z,26.03
2022-08-31T06:25:15.051Z,26.06
2022-08-31T06:26:15.081Z,25.98
2022-08-31T06:27:15.113Z,26.00
2022-08-31T06:28:15.144Z,26.00
2022-08-31T06:29:15.175Z,25.98
2022-08-31T06:30:15.530Z,26.00
2022-08-31T06:31:15.284Z,25.98
2022-08-31T06:32:15.268Z,26.03
2022-08-31T06:33:15.294Z,26.00
2022-08-31T06:34:15.332Z,26.00
2022-08-31T06:35:15.364Z,26.03
2022-08-31T06:37:18.879Z,25.98
2022-08-31T06:39:15.803Z,26.00
2022-08-31T06:40:15.590Z,26.01
2022-08-31T06:41:15.546Z,26.03
2022-08-31T06:42:15.583Z,26.04
2022-08-31T06:43:15.613Z,26.03
2022-08-31T06:44:15.644Z,26.01
2022-08-31T06:45:15.674Z,25.98
2022-08-31T06:46:16.002Z,26.04
2022-08-31T06:47:15.742Z,25.98
2022-08-31T06:48:15.772Z,25.90
2022-08-31T06:49:15.796Z,25.98
2022-08-31T06:50:15.831Z,26.01
2022-08-31T06:51:15.858Z,26.03
2022-08-31T06:52:15.891Z,26.03
2022-08-31T06:53:16.171Z,26.01
2022-08-31T06:54:29.031Z,26.03
2022-08-31T06:55:15.986Z,26.04
2022-08-31T06:56:20.600Z,26.03
2022-08-31T06:57:16.044Z,26.01
2022-08-31T06:58:16.078Z,25.98
2022-08-31T06:59:16.108Z,26.03
2022-08-31T07:00:16.398Z,26.04
2022-08-31T07:01:16.224Z,26.00
2022-08-31T07:02:16.424Z,26.03
2022-08-31T07:03:16.243Z,26.01
2022-08-31T07:04:16.268Z,26.03
2022-08-31T07:05:20.053Z,25.98
2022-08-31T07:06:16.332Z,25.98
2022-08-31T07:07:16.664Z,26.01
2022-08-31T07:08:16.394Z,26.01
2022-08-31T07:09:16.423Z,26.03
2022-08-31T07:10:16.456Z,26.00
2022-08-31T07:11:16.549Z,26.04
2022-08-31T07:12:16.515Z,26.01
2022-08-31T07:13:16.549Z,26.04
2022-08-31T07:14:16.876Z,26.03
2022-08-31T07:15:16.616Z,26.04
2022-08-31T07:16:16.667Z,26.03
2022-08-31T07:17:16.753Z,26.00
2022-08-31T07:18:16.715Z,26.03
2022-08-31T07:19:16.738Z,26.03
2022-08-31T07:20:16.767Z,26.03
2022-08-31T07:21:17.045Z,26.01
2022-08-31T07:22:16.830Z,26.01
2022-08-31T07:23:16.855Z,26.00
2022-08-31T07:24:16.889Z,26.03
2022-08-31T07:25:16.918Z,26.03
2022-08-31T07:26:16.961Z,26.03
2022-08-31T07:27:16.984Z,26.01
2022-08-31T07:28:17.314Z,26.03
2022-08-31T07:29:17.042Z,26.08
2022-08-31T07:30:17.082Z,26.04
2022-08-31T07:31:17.188Z,26.00
2022-08-31T07:32:17.140Z,26.01
2022-08-31T07:33:17.473Z,26.00
2022-08-31T07:34:17.500Z,26.03
2022-08-31T07:35:17.236Z,26.01
2022-08-31T07:36:17.275Z,25.98
2022-08-31T07:37:17.295Z,25.98
2022-08-31T07:38:17.328Z,26.00
2022-08-31T07:39:17.355Z,26.03
2022-08-31T07:40:17.454Z,26.04
2022-08-31T07:41:17.717Z,26.09
2022-08-31T07:42:17.461Z,26.03
2022-08-31T07:43:17.631Z,26.03
2022-08-31T07:44:17.515Z,26.08
2022-08-31T07:45:17.544Z,26.06
2022-08-31T07:46:17.702Z,26.11
2022-08-31T07:48:17.892Z,26.00
2022-08-31T07:49:17.674Z,26.04
2022-08-31T07:50:17.699Z,26.08
2022-08-31T07:51:17.739Z,26.01
2022-08-31T07:52:17.764Z,26.04
2022-08-31T07:53:18.376Z,26.08
2022-08-31T07:54:18.127Z,26.08
2022-08-31T07:56:17.891Z,26.11
2022-08-31T07:58:17.951Z,26.17
2022-08-31T07:59:17.981Z,26.09
2022-08-31T08:00:18.015Z,26.12
2022-08-31T08:01:18.047Z,26.08
2022-08-31T08:02:18.151Z,26.12
2022-08-31T08:03:18.448Z,26.09
2022-08-31T08:04:18.136Z,26.17
2022-08-31T08:05:18.172Z,26.04
2022-08-31T08:06:18.500Z,26.24
2022-08-31T08:07:18.233Z,26.09
2022-08-31T08:08:18.269Z,26.21
2022-08-31T08:09:24.406Z,26.08
2022-08-31T08:10:18.334Z,26.17
2022-08-31T08:11:18.358Z,26.13
2022-08-31T08:12:18.388Z,26.23
2022-08-31T08:13:18.930Z,26.09
2022-08-31T08:14:18.450Z,26.24
2022-08-31T08:15:18.483Z,26.20
2022-08-31T08:16:18.552Z,26.09
2022-08-31T08:17:18.547Z,26.23
2022-08-31T08:18:18.576Z,26.21
2022-08-31T08:20:18.895Z,26.20
2022-08-31T08:21:18.668Z,26.20
2022-08-31T08:22:30.793Z,26.20
2022-08-31T08:23:26.897Z,26.20
2022-08-31T08:24:18.766Z,26.21
2022-08-31T08:25:18.801Z,26.04
2022-08-31T08:26:21.858Z,26.17
2022-08-31T08:27:19.162Z,26.19
2022-08-31T08:28:41.345Z,26.29
2022-08-31T08:29:18.922Z,26.21
2022-08-31T08:30:18.952Z,26.23
2022-08-31T08:31:19.050Z,26.28
2022-08-31T08:32:19.024Z,26.29
2022-08-31T08:33:19.214Z,26.24
2022-08-31T08:34:19.330Z,26.23
2022-08-31T08:35:19.110Z,26.28
2022-08-31T08:36:19.141Z,26.27
2022-08-31T08:37:31.075Z,26.28
2022-08-31T08:38:19.219Z,26.29
2022-08-31T08:40:19.590Z,26.31
2022-08-31T08:41:19.306Z,26.21
2022-08-31T08:42:19.331Z,26.27
2022-08-31T08:43:19.492Z,26.27
2022-08-31T08:44:19.394Z,26.35
2022-08-31T08:45:19.424Z,26.21
2022-08-31T08:46:33.967Z,26.28
2022-08-31T08:47:20.713Z,26.27
2022-08-31T08:48:19.520Z,26.23
2022-08-31T08:49:19.548Z,26.29
2022-08-31T08:50:19.621Z,26.24
2022-08-31T08:51:19.609Z,26.31
2022-08-31T08:52:19.642Z,26.31
2022-08-31T08:53:19.851Z,26.20
2022-08-31T08:54:20.009Z,26.27
2022-08-31T08:55:19.739Z,26.31
2022-08-31T08:56:32.853Z,26.28
2022-08-31T08:57:19.808Z,26.35
2022-08-31T08:58:19.837Z,26.31
2022-08-31T08:59:20.581Z,26.31
2022-08-31T09:01:20.299Z,26.31
2022-08-31T09:02:20.056Z,26.31
2022-08-31T09:03:20.327Z,26.32
2022-08-31T09:04:20.016Z,26.41
2022-08-31T09:05:20.049Z,26.35
2022-08-31T09:06:20.085Z,26.35
2022-08-31T09:07:20.370Z,26.34
2022-08-31T09:08:20.151Z,26.36
2022-08-31T09:09:20.178Z,26.36
2022-08-31T09:10:20.211Z,26.44
2022-08-31T09:11:20.246Z,26.34
2022-08-31T09:13:20.865Z,26.44
2022-08-31T09:14:20.344Z,26.39
2022-08-31T09:15:20.362Z,26.44
2022-08-31T09:16:20.505Z,26.44
2022-08-31T09:17:20.438Z,26.46
2022-08-31T09:18:20.459Z,26.53
2022-08-31T09:19:20.789Z,26.41
2022-08-31T09:20:20.522Z,26.46
2022-08-31T09:21:20.558Z,26.47
2022-08-31T09:22:20.592Z,26.44
2022-08-31T09:23:20.898Z,26.46
2022-08-31T09:24:20.657Z,26.47
2022-08-31T09:25:20.679Z,26.46
2022-08-31T09:26:21.013Z,26.46
2022-08-31T09:27:20.745Z,26.47
2022-08-31T09:28:20.777Z,26.46
2022-08-31T09:29:20.805Z,26.47
2022-08-31T09:30:20.841Z,26.61
2022-08-31T09:31:20.886Z,26.60
2022-08-31T09:32:21.023Z,26.56
2022-08-31T09:33:21.186Z,26.54
2022-08-31T09:34:20.967Z,26.51
2022-08-31T09:35:20.996Z,26.51
2022-08-31T09:36:21.132Z,26.57
2022-08-31T09:37:21.059Z,26.56
2022-08-31T09:38:21.089Z,26.60
2022-08-31T09:39:21.124Z,26.59
2022-08-31T09:40:23.787Z,26.61
2022-08-31T09:41:21.187Z,26.50
2022-08-31T09:42:21.218Z,26.66
2022-08-31T09:43:21.452Z,26.64
2022-08-31T09:44:21.288Z,26.65
2022-08-31T09:45:21.324Z,26.61
2022-08-31T09:46:21.457Z,26.64
2022-08-31T09:47:21.627Z,26.59
2022-08-31T09:48:21.415Z,26.64
2022-08-31T09:49:21.446Z,26.66
2022-08-31T09:50:21.471Z,26.73
2022-08-31T09:51:21.502Z,26.64
2022-08-31T09:52:21.535Z,26.71
2022-08-31T09:53:21.565Z,26.73
2022-08-31T09:54:21.899Z,26.66
2022-08-31T09:55:21.628Z,26.71
2022-08-31T09:56:21.666Z,26.69
2022-08-31T09:57:21.693Z,26.75
2022-08-31T09:58:21.725Z,26.73
2022-08-31T09:59:21.757Z,26.75
2022-08-31T10:01:22.200Z,26.76
2022-08-31T10:02:21.851Z,26.83
2022-08-31T10:03:22.148Z,26.75
2022-08-31T10:04:21.913Z,26.78
2022-08-31T10:05:22.114Z,26.79
2022-08-31T10:06:21.979Z,26.81
2022-08-31T10:07:22.012Z,26.81
2022-08-31T10:08:22.342Z,26.86
2022-08-31T10:09:22.074Z,26.87
2022-08-31T10:10:30.543Z,26.87
2022-08-31T10:11:22.150Z,26.81
2022-08-31T10:12:22.169Z,26.87
2022-08-31T10:13:22.202Z,26.81
2022-08-31T10:14:22.233Z,26.93
2022-08-31T10:16:22.642Z,26.94
2022-08-31T10:18:22.366Z,26.88
2022-08-31T10:19:22.393Z,26.90
2022-08-31T10:20:22.428Z,26.98
2022-08-31T10:21:22.458Z,26.97
2022-08-31T10:22:22.496Z,27.03
2022-08-31T10:23:22.779Z,26.94
2022-08-31T10:24:22.553Z,26.97
2022-08-31T10:25:22.588Z,27.03
2022-08-31T10:26:22.642Z,26.96
2022-08-31T10:27:22.659Z,27.02
2022-08-31T10:28:22.681Z,27.02
2022-08-31T10:29:23.413Z,27.08
2022-08-31T10:30:22.999Z,27.03
2022-08-31T10:31:22.827Z,27.20
2022-08-31T10:32:22.805Z,27.13
2022-08-31T10:33:22.841Z,27.16
2022-08-31T10:34:22.882Z,27.18
2022-08-31T10:35:22.941Z,27.15
2022-08-31T10:36:22.942Z,27.18
2022-08-31T10:37:23.269Z,27.24
2022-08-31T10:38:22.999Z,27.25
2022-08-31T10:39:23.031Z,27.27
2022-08-31T10:40:23.141Z,27.27
2022-08-31T10:41:23.100Z,27.33
2022-08-31T10:42:23.130Z,27.28
2022-08-31T10:43:23.165Z,27.34
2022-08-31T10:44:23.445Z,27.27
2022-08-31T10:45:23.228Z,27.30
2022-08-31T10:46:23.324Z,27.35
2022-08-31T10:47:32.571Z,27.35
2022-08-31T10:48:23.323Z,27.39
2022-08-31T10:49:23.352Z,27.40
2022-08-31T10:50:23.398Z,27.39
2022-08-31T10:51:23.686Z,27.42
2022-08-31T10:52:23.448Z,27.38
2022-08-31T10:53:23.483Z,27.45
2022-08-31T10:54:23.519Z,27.45
2022-08-31T10:55:23.555Z,27.38
2022-08-31T10:56:24.042Z,27.46
2022-08-31T10:57:25.985Z,27.46
2022-08-31T10:58:23.902Z,27.46
2022-08-31T10:59:23.676Z,27.48
2022-08-31T11:00:23.708Z,27.48
2022-08-31T11:01:23.832Z,27.53
2022-08-31T11:02:23.806Z,27.58
2022-08-31T11:03:23.884Z,27.53
2022-08-31T11:04:23.883Z,27.61
2022-08-31T11:05:24.176Z,27.52
2022-08-31T11:06:23.904Z,27.61
2022-08-31T11:07:23.939Z,27.62
2022-08-31T11:08:23.972Z,27.61
2022-08-31T11:09:24.004Z,27.68
2022-08-31T11:10:24.038Z,27.63
2022-08-31T11:11:24.068Z,27.63
2022-08-31T11:12:24.395Z,27.68
2022-08-31T11:13:24.130Z,27.69
2022-08-31T11:14:24.163Z,27.71
2022-08-31T11:15:24.198Z,27.68
2022-08-31T11:16:24.263Z,27.74
2022-08-31T11:17:24.263Z,27.76
2022-08-31T11:18:24.596Z,27.78
2022-08-31T11:19:24.330Z,27.76
2022-08-31T11:20:24.361Z,27.77
2022-08-31T11:21:24.397Z,27.84
2022-08-31T11:22:24.426Z,27.83
2022-08-31T11:23:24.459Z,27.86
2022-08-31T11:24:24.791Z,27.84
2022-08-31T11:25:24.531Z,27.88
2022-08-31T11:27:24.591Z,27.87
2022-08-31T11:28:24.622Z,27.86
2022-08-31T11:29:24.654Z,27.91
2022-08-31T11:30:24.988Z,27.87
2022-08-31T11:31:24.815Z,27.84
2022-08-31T11:32:24.857Z,27.87
2022-08-31T11:34:24.816Z,27.93
2022-08-31T11:35:24.857Z,27.88
2022-08-31T11:36:24.886Z,28.01
2022-08-31T11:37:25.223Z,27.91
2022-08-31T11:38:24.955Z,27.98
2022-08-31T11:39:24.985Z,27.93
2022-08-31T11:40:25.061Z,27.98
2022-08-31T11:41:25.053Z,27.99
2022-08-31T11:42:25.084Z,28.01
2022-08-31T11:43:25.124Z,28.05
2022-08-31T11:44:25.446Z,28.03
2022-08-31T11:45:25.202Z,28.02
2022-08-31T11:46:26.507Z,28.05
2022-08-31T11:47:25.256Z,28.03
2022-08-31T11:48:25.276Z,28.05
2022-08-31T11:49:25.324Z,28.11
2022-08-31T11:50:25.347Z,28.09
2022-08-31T11:51:25.382Z,28.13
2022-08-31T11:52:25.415Z,28.13
2022-08-31T11:53:25.490Z,28.09
2022-08-31T11:54:25.476Z,28.11
2022-08-31T11:55:25.519Z,28.08
2022-08-31T11:56:25.542Z,28.15
2022-08-31T11:57:25.874Z,28.13
2022-08-31T11:58:25.615Z,28.13
2022-08-31T11:59:25.645Z,28.13
2022-08-31T12:02:25.824Z,28.09
2022-08-31T12:03:25.775Z,28.11
2022-08-31T12:04:26.059Z,28.09
2022-08-31T12:05:25.889Z,28.06
2022-08-31T12:06:25.970Z,28.09
2022-08-31T12:07:25.912Z,28.06
2022-08-31T12:09:25.974Z,28.03
2022-08-31T12:10:27.641Z,28.06
2022-08-31T12:11:26.336Z,27.99
2022-08-31T12:12:26.069Z,28.11
2022-08-31T12:13:26.111Z,28.02
2022-08-31T12:14:26.140Z,28.02
2022-08-31T12:15:26.170Z,27.98
2022-08-31T12:17:26.539Z,28.01
2022-08-31T12:18:26.266Z,27.99
2022-08-31T12:19:26.302Z,27.98
2022-08-31T12:20:26.338Z,27.96
2022-08-31T12:21:26.373Z,27.99
2022-08-31T12:22:26.400Z,27.98
2022-08-31T12:24:26.715Z,27.96
2022-08-31T12:25:26.501Z,27.95
2022-08-31T12:26:26.532Z,27.96
2022-08-31T12:27:26.573Z,28.05
2022-08-31T12:29:26.632Z,27.96
2022-08-31T12:31:27.083Z,27.99
2022-08-31T12:32:26.730Z,27.93
2022-08-31T12:33:26.760Z,27.98
2022-08-31T12:34:26.798Z,27.99
2022-08-31T12:35:26.830Z,27.96
2022-08-31T12:36:26.868Z,27.98
2022-08-31T12:37:27.194Z,27.96
2022-08-31T12:38:26.932Z,28.01
2022-08-31T12:39:26.958Z,27.93
2022-08-31T12:40:27.046Z,27.99
2022-08-31T12:41:27.026Z,27.98
2022-08-31T12:42:27.061Z,28.03
2022-08-31T12:43:27.389Z,27.99
2022-08-31T12:44:27.125Z,28.05
2022-08-31T12:45:27.158Z,28.06
2022-08-31T12:46:27.288Z,28.11
2022-08-31T12:47:27.265Z,28.13
2022-08-31T12:48:27.255Z,28.14
2022-08-31T12:49:27.284Z,28.21
2022-08-31T12:50:27.626Z,28.20
2022-08-31T12:51:27.353Z,28.27
2022-08-31T12:52:27.401Z,28.17
2022-08-31T12:53:27.421Z,28.27
2022-08-31T12:54:27.465Z,28.21
2022-08-31T12:55:27.488Z,28.27
2022-08-31T12:56:27.521Z,28.18
2022-08-31T12:58:27.884Z,28.15
2022-08-31T12:59:45.782Z,28.13
2022-08-31T13:00:27.648Z,28.13
2022-08-31T13:01:27.810Z,28.14
2022-08-31T13:02:27.905Z,28.11
2022-08-31T13:03:27.752Z,28.08
2022-08-31T13:04:28.086Z,28.13
2022-08-31T13:05:27.818Z,28.03
2022-08-31T13:06:27.852Z,28.08
2022-08-31T13:07:27.893Z,28.01
2022-08-31T13:08:27.920Z,28.08
2022-08-31T13:09:27.952Z,28.06
2022-08-31T13:10:27.979Z,28.01
2022-08-31T13:11:35.034Z,28.03
2022-08-31T13:12:28.048Z,28.06
2022-08-31T13:13:28.090Z,28.03
2022-08-31T13:15:28.153Z,28.08
2022-08-31T13:16:28.222Z,28.11
2022-08-31T13:17:28.214Z,28.11
2022-08-31T13:19:28.583Z,28.13
2022-08-31T13:20:28.312Z,28.20
2022-08-31T13:21:28.360Z,28.08
2022-08-31T13:22:28.388Z,28.18
2022-08-31T13:23:28.421Z,28.20
2022-08-31T13:24:28.446Z,28.14
2022-08-31T13:25:28.491Z,28.23
2022-08-31T13:26:28.815Z,28.23
2022-08-31T13:27:28.543Z,28.23
2022-08-31T13:28:28.628Z,28.21
2022-08-31T13:29:28.617Z,28.21
2022-08-31T13:30:28.648Z,28.24
2022-08-31T13:31:28.710Z,28.27
2022-08-31T13:32:28.716Z,28.36
2022-08-31T13:33:29.041Z,28.24
2022-08-31T13:34:28.778Z,28.39
2022-08-31T13:35:28.811Z,28.28
2022-08-31T13:36:28.848Z,28.35
2022-08-31T13:37:28.877Z,28.38
2022-08-31T13:38:28.908Z,28.35
2022-08-31T13:39:28.944Z,28.40
2022-08-31T13:40:29.304Z,28.39
2022-08-31T13:41:29.012Z,28.42
2022-08-31T13:42:29.048Z,28.40
2022-08-31T13:43:29.081Z,28.33